createdAt,value
2018-12-26T03:15:00.998Z,0.1
2018-12-26T03:47:00.765Z,0.1
2018-12-26T03:53:01.043Z,0.2
2018-12-26T04:00:01.040Z,0.2
2018-12-26T04:02:00.831Z,0.1
2018-12-26T04:04:00.771Z,0.2
2018-12-26T04:05:00.942Z,0.3
2018-12-26T04:08:00.775Z,0.2
2018-12-26T04:09:01.162Z,0.3
2018-12-26T04:15:01.001Z,0.3
2018-12-26T04:16:00.773Z,0.4
2018-12-26T04:19:00.771Z,0.3
2018-12-26T04:22:00.980Z,0.2
2018-12-26T04:24:01.006Z,0.1
2018-12-26T04:25:00.807Z,0.2
2018-12-26T04:26:00.777Z,0.3
2018-12-26T04:30:00.916Z,0.3
2018-12-26T04:31:00.774Z,0.2
2018-12-26T04:41:00.777Z,0.1
2018-12-26T04:45:00.918Z,0.1
2018-12-26T05:48:00.788Z,0.1
2018-12-26T06:00:01.129Z,0.1
2018-12-26T06:21:01.004Z,0.1
2018-12-26T06:24:00.801Z,0.2
2018-12-26T06:28:01.029Z,0.3
2018-12-26T06:30:00.799Z,0.4
2018-12-26T06:31:00.837Z,0.5
2018-12-26T06:33:00.946Z,0.6
2018-12-26T06:34:00.811Z,0.7
2018-12-26T06:38:01.534Z,0.8
2018-12-26T06:40:00.803Z,0.9
2018-12-26T06:41:01.185Z,1.0
2018-12-26T06:42:00.830Z,1.1
2018-12-26T06:43:01.468Z,1.2
2018-12-26T06:44:00.802Z,1.3
2018-12-26T06:45:01.200Z,1.3
2018-12-26T06:46:00.803Z,1.4
2018-12-26T06:47:00.837Z,1.5
2018-12-26T06:48:00.946Z,1.7
2018-12-26T06:49:00.803Z,1.8
2018-12-26T06:50:00.808Z,2.0
2018-12-26T06:51:00.802Z,2.2
2018-12-26T06:52:00.831Z,2.5
2018-12-26T06:53:00.984Z,2.9
2018-12-26T06:54:00.802Z,3.3
2018-12-26T06:55:00.946Z,3.7
2018-12-26T06:56:00.807Z,4.2
2018-12-26T06:57:00.802Z,4.9
2018-12-26T06:58:00.979Z,5.7
2018-12-26T06:59:00.804Z,6.8
2018-12-26T07:00:00.803Z,8.1
2018-12-26T07:01:00.807Z,9.4
2018-12-26T07:02:00.811Z,10.7
2018-12-26T07:03:00.985Z,12.1
2018-12-26T07:04:00.802Z,13.6
2018-12-26T07:05:00.850Z,15.1
2018-12-26T07:06:00.807Z,17.1
2018-12-26T07:07:01.800Z,18.9
2018-12-26T07:08:00.982Z,21.1
2018-12-26T07:09:00.830Z,23.8
2018-12-26T07:10:01.305Z,26.8
2018-12-26T07:11:00.806Z,30.1
2018-12-26T07:12:00.805Z,33.5
2018-12-26T07:13:00.992Z,37.4
2018-12-26T07:14:00.804Z,41.9
2018-12-26T07:15:00.807Z,46.9
2018-12-26T07:16:00.807Z,52.1
2018-12-26T07:17:00.807Z,58.1
2018-12-26T07:18:02.202Z,64.1
2018-12-26T07:19:00.811Z,71.3
2018-12-26T07:20:01.058Z,79.5
2018-12-26T07:21:00.811Z,88.0
2018-12-26T07:22:00.811Z,97.4
2018-12-26T07:23:00.958Z,106.5
2018-12-26T07:24:00.811Z,117.4
2018-12-26T07:25:00.848Z,129.3
2018-12-26T07:26:00.812Z,143.0
2018-12-26T07:27:00.811Z,158.7
2018-12-26T07:28:08.706Z,176.1
2018-12-26T07:29:01.026Z,192.9
2018-12-26T07:30:00.876Z,211.3
2018-12-26T07:31:00.812Z,234.6
2018-12-26T07:32:01.071Z,255.9
2018-12-26T07:33:00.959Z,281.1
2018-12-26T07:34:00.812Z,306.9
2018-12-26T07:35:00.847Z,337.1
2018-12-26T07:36:00.814Z,373.1
2018-12-26T07:37:02.157Z,411.8
2018-12-26T07:38:00.958Z,452.5
2018-12-26T07:39:00.814Z,500.5
2018-12-26T07:40:00.852Z,550.9
2018-12-26T07:41:00.815Z,609.5
2018-12-26T07:42:01.024Z,687.1
2018-12-26T07:43:00.954Z,765.1
2018-12-26T07:44:00.814Z,857.4
2018-12-26T07:45:01.068Z,975.7
2018-12-26T07:46:00.816Z,1091.9
2018-12-26T07:47:00.812Z,1235.3
2018-12-26T07:48:00.954Z,1398.9
2018-12-26T07:49:00.839Z,1569.0
2018-12-26T07:50:05.841Z,1744.5
2018-12-26T07:51:00.816Z,1926.3
2018-12-26T07:52:00.819Z,2158.7
2018-12-26T07:53:00.993Z,2380.3
2018-12-26T07:54:00.815Z,2603.9
2018-12-26T07:55:00.819Z,2816.0
2018-12-26T07:56:00.846Z,3042.8
2018-12-26T07:57:00.828Z,3289.4
2018-12-26T07:58:03.796Z,3533.3
2018-12-26T07:59:00.817Z,3784.3
2018-12-26T08:00:01.022Z,4018.6
2018-12-26T08:01:02.940Z,4222.3
2018-12-26T08:02:00.818Z,4426.4
2018-12-26T08:03:01.024Z,4558.9
2018-12-26T08:04:00.817Z,4734.4
2018-12-26T08:05:00.818Z,4911.9
2018-12-26T08:06:00.844Z,5113.3
2018-12-26T08:07:00.819Z,5245.6
2018-12-26T08:08:00.958Z,5385.0
2018-12-26T08:09:00.822Z,5536.8
2018-12-26T08:10:00.819Z,5702.9
2018-12-26T08:11:00.854Z,5899.2
2018-12-26T08:12:00.820Z,6064.5
2018-12-26T08:13:00.995Z,6255.7
2018-12-26T08:14:00.904Z,6429.5
2018-12-26T08:15:00.828Z,6538.8
2018-12-26T08:16:00.865Z,6713.7
2018-12-26T08:17:00.822Z,6911.7
2018-12-26T08:18:00.964Z,7185.3
2018-12-26T08:19:02.144Z,7404.9
2018-12-26T08:20:00.829Z,7637.5
2018-12-26T08:21:00.870Z,8003.7
2018-12-26T08:22:01.168Z,8340.1
2018-12-26T08:23:00.965Z,8628.4
2018-12-26T08:24:00.830Z,8907.4
2018-12-26T08:25:00.824Z,9267.4
2018-12-26T08:26:00.859Z,9642.4
2018-12-26T08:27:00.825Z,9974.3
2018-12-26T08:28:00.962Z,10222.1
2018-12-26T08:29:00.825Z,10701.0
2018-12-26T08:30:00.828Z,11026.1
2018-12-26T08:31:02.529Z,11249.9
2018-12-26T08:32:00.823Z,11362.2
2018-12-26T08:33:00.993Z,11367.1
2018-12-26T08:34:00.825Z,11377.8
2018-12-26T08:35:00.825Z,11340.1
2018-12-26T08:36:01.255Z,11178.2
2018-12-26T08:37:00.860Z,11204.1
2018-12-26T08:38:01.173Z,11336.3
2018-12-26T08:39:00.829Z,11365.3
2018-12-26T08:40:00.831Z,11310.1
2018-12-26T08:41:00.828Z,11054.1
2018-12-26T08:42:00.864Z,10787.5
2018-12-26T08:43:00.970Z,10582.3
2018-12-26T08:44:00.997Z,10201.9
2018-12-26T08:45:00.830Z,10099.6
2018-12-26T08:46:00.892Z,10165.5
2018-12-26T08:47:00.863Z,10305.0
2018-12-26T08:48:00.973Z,10678.4
2018-12-26T08:49:02.177Z,11092.7
2018-12-26T08:50:00.831Z,11871.2
2018-12-26T08:51:00.829Z,12384.4
2018-12-26T08:52:00.860Z,12677.2
2018-12-26T08:53:00.970Z,12655.5
2018-12-26T08:54:01.020Z,12809.3
2018-12-26T08:55:00.828Z,12975.9
2018-12-26T08:56:00.830Z,13193.4
2018-12-26T08:57:01.232Z,13392.9
2018-12-26T08:58:00.971Z,13852.3
2018-12-26T08:59:00.835Z,14109.3
2018-12-26T09:00:00.833Z,14144.5
2018-12-26T09:01:00.830Z,14116.4
2018-12-26T09:02:00.830Z,14270.7
2018-12-26T09:03:00.979Z,14293.3
2018-12-26T09:04:00.866Z,14201.1
2018-12-26T09:05:00.834Z,13808.3
2018-12-26T09:06:01.429Z,13629.6
2018-12-26T09:07:00.832Z,13828.9
2018-12-26T09:08:00.974Z,14123.2
2018-12-26T09:09:00.865Z,14517.5
2018-12-26T09:10:00.842Z,15019.5
2018-12-26T09:11:00.832Z,16114.3
2018-12-26T09:12:00.834Z,16868.3
2018-12-26T09:13:00.983Z,16794.9
2018-12-26T09:14:01.030Z,16870.1
2018-12-26T09:15:00.836Z,17232.2
2018-12-26T09:16:00.835Z,17955.2
2018-12-26T09:17:00.839Z,18166.8
2018-12-26T09:18:00.975Z,18297.3
2018-12-26T09:19:00.871Z,18599.1
2018-12-26T09:20:00.836Z,19124.0
2018-12-26T09:21:00.837Z,19637.0
2018-12-26T09:22:00.847Z,19680.5
2018-12-26T09:23:00.983Z,19858.1
2018-12-26T09:24:00.873Z,19951.5
2018-12-26T09:25:00.903Z,19627.1
2018-12-26T09:26:00.839Z,19406.1
2018-12-26T09:27:01.037Z,19309.3
2018-12-26T09:28:01.067Z,19696.3
2018-12-26T09:29:00.898Z,19898.3
2018-12-26T09:30:00.839Z,19952.1
2018-12-26T09:31:00.839Z,19288.3
2018-12-26T09:32:00.838Z,19116.5
2018-12-26T09:33:01.011Z,19210.0
2018-12-26T09:34:00.876Z,19125.5
2018-12-26T09:35:01.023Z,19111.8
2018-12-26T09:36:00.840Z,19206.1
2018-12-26T09:37:00.841Z,19276.5
2018-12-26T09:38:00.982Z,19009.5
2018-12-26T09:39:00.878Z,18513.5
2018-12-26T09:40:01.154Z,18384.5
2018-12-26T09:41:01.909Z,17548.4
2018-12-26T09:42:00.844Z,17064.1
2018-12-26T09:43:00.991Z,16748.7
2018-12-26T09:44:00.922Z,16558.1
2018-12-26T09:45:00.846Z,16477.3
2018-12-26T09:46:00.849Z,16726.0
2018-12-26T09:47:00.847Z,16735.1
2018-12-26T09:48:00.993Z,16449.2
2018-12-26T09:49:00.885Z,16151.9
2018-12-26T09:50:00.851Z,15787.9
2018-12-26T09:51:00.851Z,15559.7
2018-12-26T09:52:00.853Z,15241.1
2018-12-26T09:53:01.461Z,15464.8
2018-12-26T09:54:00.884Z,15638.4
2018-12-26T09:55:00.848Z,15866.3
2018-12-26T09:56:00.849Z,15983.8
2018-12-26T09:57:01.222Z,16141.9
2018-12-26T09:58:00.998Z,16103.5
2018-12-26T09:59:00.875Z,15958.3
2018-12-26T10:00:00.851Z,15959.3
2018-12-26T10:01:00.851Z,16236.8
2018-12-26T10:02:00.851Z,16542.9
2018-12-26T10:03:01.058Z,16674.8
2018-12-26T10:04:00.877Z,16787.3
2018-12-26T10:05:00.887Z,17170.1
2018-12-26T10:06:00.947Z,16852.0
2018-12-26T10:07:00.853Z,16833.0
2018-12-26T10:08:00.993Z,17286.1
2018-12-26T10:09:00.859Z,17596.1
2018-12-26T10:10:00.855Z,17601.5
2018-12-26T10:11:00.897Z,17808.6
2018-12-26T10:12:00.855Z,18006.2
2018-12-26T10:13:01.027Z,18131.5
2018-12-26T10:14:00.861Z,18493.9
2018-12-26T10:15:00.873Z,19399.2
2018-12-26T10:16:00.886Z,19774.1
2018-12-26T10:17:01.797Z,19690.7
2018-12-26T10:18:01.139Z,19716.7
2018-12-26T10:19:00.860Z,20486.7
2018-12-26T10:20:00.862Z,20834.8
2018-12-26T10:21:00.888Z,21326.8
2018-12-26T10:22:00.861Z,21680.9
2018-12-26T10:23:01.001Z,21691.7
2018-12-26T10:24:00.865Z,21946.3
2018-12-26T10:25:00.862Z,22861.6
2018-12-26T10:26:00.894Z,23615.7
2018-12-26T10:27:00.890Z,23871.2
2018-12-26T10:28:01.013Z,24421.5
2018-12-26T10:29:01.260Z,25535.7
2018-12-26T10:30:00.865Z,25758.0
2018-12-26T10:31:00.907Z,25900.5
2018-12-26T10:32:00.867Z,26322.0
2018-12-26T10:33:01.041Z,26725.5
2018-12-26T10:34:00.865Z,26524.4
2018-12-26T10:35:02.097Z,26215.3
2018-12-26T10:36:00.897Z,26235.4
2018-12-26T10:37:00.864Z,26257.3
2018-12-26T10:38:01.008Z,26052.5
2018-12-26T10:39:00.862Z,26196.9
2018-12-26T10:40:00.869Z,25936.1
2018-12-26T10:41:00.899Z,25382.6
2018-12-26T10:42:00.866Z,25585.3
2018-12-26T10:43:01.334Z,25917.8
2018-12-26T10:44:00.869Z,25462.5
2018-12-26T10:45:00.875Z,25359.6
2018-12-26T10:46:00.892Z,25719.7
2018-12-26T10:47:00.866Z,26123.1
2018-12-26T10:48:01.536Z,26856.6
2018-12-26T10:49:00.872Z,27736.7
2018-12-26T10:50:00.866Z,28629.7
2018-12-26T10:51:00.900Z,29837.7
2018-12-26T10:52:01.057Z,30924.6
2018-12-26T10:53:01.070Z,31947.3
2018-12-26T10:54:00.869Z,32612.4
2018-12-26T10:55:00.868Z,32867.1
2018-12-26T10:56:01.254Z,33348.5
2018-12-26T10:57:00.874Z,33573.2
2018-12-26T10:58:01.024Z,33295.1
2018-12-26T10:59:09.696Z,33113.6
2018-12-26T11:00:00.876Z,32991.2
2018-12-26T11:01:00.875Z,32660.6
2018-12-26T11:02:00.903Z,32192.5
2018-12-26T11:03:01.122Z,31905.3
2018-12-26T11:04:00.877Z,31565.9
2018-12-26T11:05:00.875Z,31372.3
2018-12-26T11:06:00.877Z,30641.3
2018-12-26T11:07:00.913Z,29974.7
2018-12-26T11:08:01.020Z,29560.6
2018-12-26T11:09:01.006Z,28974.7
2018-12-26T11:10:00.875Z,28597.7
2018-12-26T11:11:00.877Z,28562.4
2018-12-26T11:12:00.907Z,28398.6
2018-12-26T11:13:01.021Z,28640.3
2018-12-26T11:14:00.932Z,29034.9
2018-12-26T11:15:00.882Z,29383.3
2018-12-26T11:16:00.903Z,29725.9
2018-12-26T11:17:00.889Z,30609.3
2018-12-26T11:18:01.023Z,30596.9
2018-12-26T11:19:00.875Z,30289.3
2018-12-26T11:20:00.878Z,29674.4
2018-12-26T11:21:00.902Z,29185.0
2018-12-26T11:22:00.878Z,29085.9
2018-12-26T11:23:01.020Z,28813.1
2018-12-26T11:24:00.904Z,28762.1
2018-12-26T11:25:00.884Z,28899.3
2018-12-26T11:26:00.878Z,28746.0
2018-12-26T11:27:00.878Z,28719.5
2018-12-26T11:28:01.130Z,28617.0
2018-12-26T11:29:00.904Z,28297.8
2018-12-26T11:30:00.880Z,27917.5
2018-12-26T11:31:00.879Z,27617.8
2018-12-26T11:32:00.878Z,27174.8
2018-12-26T11:33:01.436Z,27410.9
2018-12-26T11:34:00.904Z,27955.3
2018-12-26T11:35:01.011Z,28651.8
2018-12-26T11:36:00.878Z,29366.9
2018-12-26T11:37:05.903Z,29931.7
2018-12-26T11:38:01.028Z,30243.1
2018-12-26T11:39:00.908Z,30794.7
2018-12-26T11:40:00.890Z,31650.5
2018-12-26T11:41:00.889Z,32651.6
2018-12-26T11:42:00.896Z,33115.9
2018-12-26T11:43:01.025Z,33810.4
2018-12-26T11:44:00.918Z,34852.3
2018-12-26T11:45:00.882Z,35794.3
2018-12-26T11:46:00.883Z,36800.0
2018-12-26T11:47:00.881Z,37355.1
2018-12-26T11:48:01.034Z,38124.1
2018-12-26T11:49:00.913Z,38776.0
2018-12-26T11:50:00.885Z,39139.9
2018-12-26T11:51:00.885Z,39835.4
2018-12-26T11:52:01.412Z,40074.2
2018-12-26T11:53:01.026Z,40712.5
2018-12-26T11:54:00.910Z,42020.9
2018-12-26T11:55:00.913Z,42009.9
2018-12-26T11:56:00.888Z,42619.4
2018-12-26T11:57:00.894Z,43046.4
2018-12-26T11:58:01.030Z,43361.1
2018-12-26T11:59:00.921Z,44479.7
2018-12-26T12:00:00.889Z,44883.9
2018-12-26T12:01:00.886Z,45382.2
2018-12-26T12:02:00.955Z,46073.5
2018-12-26T12:03:01.029Z,46281.2
2018-12-26T12:04:01.250Z,47686.5
2018-12-26T12:05:00.889Z,48124.9
2018-12-26T12:06:00.889Z,47868.1
2018-12-26T12:07:00.889Z,48569.4
2018-12-26T12:08:01.034Z,48896.7
2018-12-26T12:09:02.174Z,48009.7
2018-12-26T12:10:00.896Z,47498.9
2018-12-26T12:11:00.903Z,46463.0
2018-12-26T12:12:00.892Z,46627.4
2018-12-26T12:13:01.032Z,46674.9
2018-12-26T12:14:00.894Z,44888.3
2018-12-26T12:15:00.921Z,43907.8
2018-12-26T12:16:00.894Z,42383.7
2018-12-26T12:17:00.894Z,40982.5
2018-12-26T12:18:01.043Z,40127.0
2018-12-26T12:19:00.897Z,37847.6
2018-12-26T12:20:00.927Z,36640.7
2018-12-26T12:21:01.002Z,36280.9
2018-12-26T12:22:01.734Z,34902.8
2018-12-26T12:23:01.032Z,33371.1
2018-12-26T12:24:00.894Z,32478.5
2018-12-26T12:25:00.932Z,32111.1
2018-12-26T12:26:00.898Z,31653.5
2018-12-26T12:27:00.896Z,30410.0
2018-12-26T12:28:01.093Z,29051.7
2018-12-26T12:29:00.896Z,28443.6
2018-12-26T12:30:00.929Z,27599.5
2018-12-26T12:31:00.903Z,27152.4
2018-12-26T12:32:00.897Z,26661.5
2018-12-26T12:33:01.064Z,25734.5
2018-12-26T12:34:00.896Z,24976.1
2018-12-26T12:35:00.930Z,24429.9
2018-12-26T12:36:00.897Z,23531.7
2018-12-26T12:37:00.897Z,22932.1
2018-12-26T12:38:01.224Z,22593.3
2018-12-26T12:39:01.238Z,21994.2
2018-12-26T12:40:00.935Z,21413.7
2018-12-26T12:41:00.902Z,20928.6
2018-12-26T12:42:00.901Z,20528.4
2018-12-26T12:43:01.046Z,20267.0
2018-12-26T12:44:00.905Z,20055.3
2018-12-26T12:45:00.937Z,19912.9
2018-12-26T12:46:00.906Z,19832.8
2018-12-26T12:47:00.928Z,19816.1
2018-12-26T12:48:01.110Z,19784.6
2018-12-26T12:49:00.907Z,19720.7
2018-12-26T12:50:00.933Z,19542.9
2018-12-26T12:51:01.045Z,19424.2
2018-12-26T12:52:00.902Z,19422.7
2018-12-26T12:53:01.041Z,19373.1
2018-12-26T12:54:00.906Z,19290.8
2018-12-26T12:55:00.943Z,19257.3
2018-12-26T12:56:02.124Z,19135.0
2018-12-26T12:57:00.903Z,19158.7
2018-12-26T12:58:01.048Z,19026.8
2018-12-26T12:59:00.936Z,18904.2
2018-12-26T13:00:00.939Z,18736.1
2018-12-26T13:01:00.904Z,18458.5
2018-12-26T13:02:00.907Z,18134.9
2018-12-26T13:03:01.047Z,17825.8
2018-12-26T13:04:01.176Z,17650.1
2018-12-26T13:05:00.941Z,17483.4
2018-12-26T13:06:00.910Z,17188.8
2018-12-26T13:07:00.932Z,16984.5
2018-12-26T13:08:01.046Z,16897.2
2018-12-26T13:09:00.909Z,16672.9
2018-12-26T13:10:00.951Z,16329.0
2018-12-26T13:11:00.908Z,16006.4
2018-12-26T13:12:00.909Z,15627.2
2018-12-26T13:13:01.054Z,15238.7
2018-12-26T13:14:00.909Z,14806.9
2018-12-26T13:15:00.946Z,14350.7
2018-12-26T13:16:00.907Z,13962.0
2018-12-26T13:17:00.908Z,13629.8
2018-12-26T13:18:01.045Z,13304.4
2018-12-26T13:19:00.909Z,12940.7
2018-12-26T13:20:00.931Z,12649.0
2018-12-26T13:21:00.906Z,12407.3
2018-12-26T13:22:01.077Z,12145.3
2018-12-26T13:23:01.054Z,11865.7
2018-12-26T13:24:00.930Z,11689.6
2018-12-26T13:25:00.906Z,11569.8
2018-12-26T13:26:00.906Z,11514.9
2018-12-26T13:27:00.905Z,11459.3
2018-12-26T13:28:01.112Z,11497.3
2018-12-26T13:29:00.946Z,11550.1
2018-12-26T13:30:00.906Z,11602.8
2018-12-26T13:31:04.954Z,11644.1
2018-12-26T13:32:00.907Z,11768.5
2018-12-26T13:33:01.137Z,11933.5
2018-12-26T13:34:05.907Z,12134.1
2018-12-26T13:35:00.908Z,12345.7
2018-12-26T13:36:00.909Z,12478.9
2018-12-26T13:37:00.914Z,12563.1
2018-12-26T13:38:01.054Z,12686.5
2018-12-26T13:39:02.054Z,12715.5
2018-12-26T13:40:00.914Z,12788.9
2018-12-26T13:41:00.911Z,12738.3
2018-12-26T13:42:00.912Z,12687.1
2018-12-26T13:43:01.308Z,12598.5
2018-12-26T13:44:00.910Z,12574.9
2018-12-26T13:45:00.939Z,12660.1
2018-12-26T13:46:00.912Z,12778.1
2018-12-26T13:47:01.027Z,12740.7
2018-12-26T13:48:01.054Z,12717.9
2018-12-26T13:49:00.912Z,12698.7
2018-12-26T13:50:05.913Z,12682.6
2018-12-26T13:51:00.914Z,12750.0
2018-12-26T13:52:00.914Z,12799.0
2018-12-26T13:53:01.091Z,12760.7
2018-12-26T13:54:00.912Z,12845.9
2018-12-26T13:55:00.915Z,12928.5
2018-12-26T13:56:01.000Z,12976.9
2018-12-26T13:57:00.918Z,13076.3
2018-12-26T13:58:01.060Z,13151.7
2018-12-26T13:59:00.945Z,13180.4
2018-12-26T14:00:02.334Z,13195.2
2018-12-26T14:01:00.914Z,13136.1
2018-12-26T14:02:00.915Z,13129.5
2018-12-26T14:03:01.063Z,13109.2
2018-12-26T14:04:00.950Z,12985.9
2018-12-26T14:05:00.915Z,12815.5
2018-12-26T14:06:00.917Z,12622.5
2018-12-26T14:07:00.919Z,12418.8
2018-12-26T14:08:01.065Z,12208.2
2018-12-26T14:09:00.951Z,11959.1
2018-12-26T14:10:00.920Z,11686.3
2018-12-26T14:11:00.928Z,11476.5
2018-12-26T14:12:00.918Z,11221.4
2018-12-26T14:13:01.127Z,10944.7
2018-12-26T14:14:00.956Z,10640.7
2018-12-26T14:15:00.940Z,10251.1
2018-12-26T14:16:00.924Z,9867.5
2018-12-26T14:17:00.922Z,9496.3
2018-12-26T14:18:01.125Z,9082.9
2018-12-26T14:19:00.956Z,8717.2
2018-12-26T14:20:00.922Z,8373.7
2018-12-26T14:21:00.922Z,7980.1
2018-12-26T14:22:00.927Z,7604.5
2018-12-26T14:23:01.069Z,7250.9
2018-12-26T14:24:00.954Z,6919.9
2018-12-26T14:25:01.182Z,6602.7
2018-12-26T14:26:02.084Z,6293.3
2018-12-26T14:27:00.922Z,5996.9
2018-12-26T14:28:01.067Z,5749.4
2018-12-26T14:29:01.039Z,5509.3
2018-12-26T14:30:00.924Z,5291.0
2018-12-26T14:31:00.946Z,5071.7
2018-12-26T14:32:00.925Z,4879.7
2018-12-26T14:33:01.117Z,4713.1
2018-12-26T14:34:00.961Z,4533.9
2018-12-26T14:35:00.924Z,4348.0
2018-12-26T14:36:00.927Z,4193.3
2018-12-26T14:37:01.044Z,4052.2
2018-12-26T14:38:01.101Z,3905.8
2018-12-26T14:39:00.956Z,3762.9
2018-12-26T14:40:00.920Z,3620.8
2018-12-26T14:41:00.922Z,3481.1
2018-12-26T14:42:00.920Z,3337.0
2018-12-26T14:43:01.066Z,3194.8
2018-12-26T14:44:00.953Z,3065.3
2018-12-26T14:45:00.924Z,2941.2
2018-12-26T14:46:00.927Z,2816.9
2018-12-26T14:47:00.925Z,2684.7
2018-12-26T14:48:01.068Z,2551.6
2018-12-26T14:49:00.973Z,2418.2
2018-12-26T14:50:01.874Z,2289.9
2018-12-26T14:51:00.928Z,2159.7
2018-12-26T14:52:00.924Z,2036.8
2018-12-26T14:53:01.174Z,1917.2
2018-12-26T14:54:00.960Z,1795.3
2018-12-26T14:55:00.927Z,1679.3
2018-12-26T14:56:00.927Z,1570.1
2018-12-26T14:57:00.930Z,1469.7
2018-12-26T14:58:01.108Z,1376.1
2018-12-26T14:59:00.962Z,1285.1
2018-12-26T15:00:00.944Z,1197.6
2018-12-26T15:01:00.931Z,1111.3
2018-12-26T15:02:00.929Z,1027.6
2018-12-26T15:03:01.073Z,946.9
2018-12-26T15:04:00.967Z,865.9
2018-12-26T15:05:00.936Z,786.7
2018-12-26T15:06:00.933Z,710.0
2018-12-26T15:07:00.931Z,637.9
2018-12-26T15:08:01.071Z,576.6
2018-12-26T15:09:00.969Z,523.7
2018-12-26T15:10:00.933Z,476.4
2018-12-26T15:11:00.934Z,437.9
2018-12-26T15:12:00.962Z,402.7
2018-12-26T15:13:01.075Z,366.6
2018-12-26T15:14:00.970Z,332.0
2018-12-26T15:15:00.946Z,303.4
2018-12-26T15:16:00.939Z,278.3
2018-12-26T15:17:00.937Z,254.4
2018-12-26T15:18:01.077Z,232.2
2018-12-26T15:19:00.969Z,211.6
2018-12-26T15:20:02.139Z,192.3
2018-12-26T15:21:00.943Z,174.6
2018-12-26T15:22:00.939Z,158.5
2018-12-26T15:23:01.084Z,143.5
2018-12-26T15:24:00.971Z,129.9
2018-12-26T15:25:00.937Z,116.7
2018-12-26T15:26:00.938Z,104.2
2018-12-26T15:27:00.943Z,93.3
2018-12-26T15:28:01.322Z,83.7
2018-12-26T15:29:00.972Z,74.7
2018-12-26T15:30:00.941Z,65.7
2018-12-26T15:31:00.943Z,57.1
2018-12-26T15:32:00.974Z,49.9
2018-12-26T15:33:01.218Z,43.9
2018-12-26T15:34:00.978Z,38.5
2018-12-26T15:35:00.940Z,33.7
2018-12-26T15:36:00.943Z,29.4
2018-12-26T15:37:00.941Z,25.7
2018-12-26T15:38:01.081Z,22.2
2018-12-26T15:39:00.976Z,19.2
2018-12-26T15:40:00.942Z,16.8
2018-12-26T15:41:00.941Z,14.6
2018-12-26T15:42:00.941Z,12.5
2018-12-26T15:43:01.086Z,10.9
2018-12-26T15:44:00.975Z,9.5
2018-12-26T15:45:00.943Z,8.3
2018-12-26T15:46:00.942Z,7.2
2018-12-26T15:47:00.944Z,6.3
2018-12-26T15:48:03.248Z,5.6
2018-12-26T15:49:00.979Z,4.9
2018-12-26T15:50:00.949Z,4.4
2018-12-26T15:51:00.944Z,3.9
2018-12-26T15:52:00.945Z,3.3
2018-12-26T15:53:01.086Z,2.9
2018-12-26T15:54:01.326Z,2.6
2018-12-26T15:55:00.947Z,2.3
2018-12-26T15:56:00.947Z,2.0
2018-12-26T15:57:00.946Z,1.8
2018-12-26T15:58:01.088Z,1.6
2018-12-26T15:59:00.946Z,1.5
2018-12-26T16:00:01.001Z,1.3
2018-12-26T16:01:00.946Z,1.2
2018-12-26T16:02:00.946Z,1.1
2018-12-26T16:03:01.086Z,0.9
2018-12-26T16:04:00.951Z,0.8
2018-12-26T16:05:00.970Z,0.7
2018-12-26T16:06:00.945Z,0.6
2018-12-26T16:07:00.949Z,0.5
2018-12-26T16:09:01.231Z,0.4
2018-12-26T16:10:00.946Z,0.3
2018-12-26T16:12:01.076Z,0.2
2018-12-26T16:13:00.945Z,0.1
